Hauptseite
METAR-TAF:

METAR-TAF

Flughäfen :

Flughafen Salala

Salala, Oman

Breite: 17-02N, Länge: 054-05E, Höhe: 20 m

Beobachtung

Neuester Wetterbericht von vor 52 Minuten, um 17:50 UTC
Wind 7 kt aus Südwest
Temperatur 27°C
Luftfeuchtigkeit 79%
Luftdruck 1015 hPa
Sichtweite 10 km oder mehr
Aufgelockert bewölkt in der Höhe von 3000 ft

METAR: OOSA 071750Z 22007KT 9999 SCT030 27/23 Q1015 NOSIG

Zeit: 22:42 (18:42 UTC)

Prognose

Neuester Wetterbericht von vor 1 Stunde und 2 Minuten, um 17:40 UTC
Gültige Prognose vom 07 um 18 UTC bis 09 um 00 UTC
Wind 3 kt aus unterschiedlichen Richtungen
Sichtweite 10 km oder mehr
Durchbrochene Bewölkung in der Höhe von 3000 ft

TAF: OOSA 071740Z 0718/0900 VRB03KT 9999 BKN030

Wetterbeobachtungen und Prognosen von mehr als 4000 Flughäfen (METAR und TAF Bericht).

Die verfügbaren Stationen werden durch gelbe und rote Markierungen auf der Karte dargestellt.

Führen Sie die Maus auf sie, um den Namen der Station zu sehen.

Darauf klicken, um die Beobachtung von Wetterbeobachtungen und Prognosen zu sehen.

Um die Karte zu ändern : klicken Sie auf den grünen Tasten mit einem schwarzen Kreuz Zum Vergrößern, auf den grünen Button mit einem Gedankenstrich zu verkleinern, oder auf die grünen Pfeile für benachbarte Karten.


METAR-TAF: